createdAt,value
2024-03-05T00:00:56.816Z,2.03
2024-03-05T00:03:24.329Z,1.90
2024-03-05T00:05:51.990Z,2.10
2024-03-05T00:08:19.512Z,1.77
2024-03-05T00:10:47.572Z,1.77
2024-03-05T00:13:15.156Z,1.77
2024-03-05T00:15:42.760Z,1.70
2024-03-05T00:18:11.218Z,1.77
2024-03-05T00:23:06.080Z,1.80
2024-03-05T00:25:33.571Z,1.90
2024-03-05T00:28:01.463Z,1.73
2024-03-05T00:30:28.909Z,1.50
2024-03-05T00:32:56.393Z,1.45
2024-03-05T00:35:23.874Z,1.90
2024-03-05T00:37:51.946Z,1.90
2024-03-05T00:40:19.874Z,1.75
2024-03-05T00:42:47.444Z,1.58
2024-03-05T00:45:18.722Z,1.63
2024-03-05T00:47:46.435Z,1.60
2024-03-05T00:50:14.595Z,1.23
2024-03-05T00:52:42.339Z,1.08
2024-03-05T00:55:10.180Z,1.60
2024-03-05T00:57:37.954Z,1.23
2024-03-05T01:00:06.966Z,1.63
2024-03-05T01:02:34.674Z,1.83
2024-03-05T01:05:08.427Z,1.50
2024-03-05T01:07:36.047Z,1.13
2024-03-05T01:10:03.599Z,1.30
2024-03-05T01:12:31.012Z,1.30
2024-03-05T01:14:59.261Z,1.23
2024-03-05T01:17:30.060Z,1.40
2024-03-05T01:19:58.417Z,1.75
2024-03-05T01:22:26.297Z,1.25
2024-03-05T01:24:53.740Z,1.30
2024-03-05T01:27:21.637Z,1.88
2024-03-05T01:29:49.559Z,1.80
2024-03-05T01:32:17.386Z,1.40
2024-03-05T01:34:45.489Z,1.50
2024-03-05T01:37:12.976Z,1.45
2024-03-05T01:39:40.507Z,1.10
2024-03-05T01:42:09.327Z,1.25
2024-03-05T01:44:36.821Z,1.40
2024-03-05T01:47:04.428Z,1.30
2024-03-05T01:49:31.983Z,1.20
2024-03-05T01:51:59.824Z,1.23
2024-03-05T01:54:29.661Z,1.15
2024-03-05T01:56:59.267Z,0.98
2024-03-05T01:59:27.522Z,1.35
2024-03-05T02:01:57.548Z,1.38
2024-03-05T02:04:25.948Z,1.20
2024-03-05T02:09:23.034Z,1.15
2024-03-05T02:11:56.589Z,1.25
2024-03-05T02:14:27.975Z,1.25
2024-03-05T02:16:59.615Z,0.95
2024-03-05T02:19:27.502Z,1.13
2024-03-05T02:22:05.221Z,1.20
2024-03-05T02:24:32.834Z,1.20
2024-03-05T02:27:04.081Z,1.00
2024-03-05T02:29:33.674Z,1.10
2024-03-05T02:32:01.909Z,1.65
2024-03-05T02:34:29.715Z,1.08
2024-03-05T02:36:58.949Z,1.38
2024-03-05T02:39:28.513Z,1.30
2024-03-05T02:41:56.024Z,0.98
2024-03-05T02:44:23.415Z,1.33
2024-03-05T02:49:21.104Z,1.23
2024-03-05T02:51:49.262Z,1.45
2024-03-05T02:54:16.935Z,1.00
2024-03-05T02:56:44.368Z,1.33
2024-03-05T02:59:11.856Z,1.17
2024-03-05T03:01:39.303Z,1.15
2024-03-05T03:04:06.786Z,1.40
2024-03-05T03:06:34.247Z,1.90
2024-03-05T03:09:01.608Z,1.25
2024-03-05T03:11:29.370Z,1.25
2024-03-05T03:13:57.058Z,1.20
2024-03-05T03:16:24.648Z,1.40
2024-03-05T03:18:52.189Z,1.60
2024-03-05T03:21:19.657Z,1.70
2024-03-05T03:23:47.130Z,1.67
2024-03-05T03:26:15.147Z,1.63
2024-03-05T03:28:43.321Z,1.70
2024-03-05T03:31:12.282Z,1.75
2024-03-05T03:33:43.044Z,2.47
2024-03-05T03:36:10.566Z,2.40
2024-03-05T03:38:38.177Z,2.37
2024-03-05T03:41:07.073Z,3.00
2024-03-05T03:43:34.645Z,3.20
2024-03-05T03:46:02.187Z,3.00
2024-03-05T03:48:30.438Z,3.03
2024-03-05T03:50:58.160Z,2.63
2024-03-05T03:53:25.602Z,2.53
2024-03-05T03:55:54.754Z,2.90
2024-03-05T03:58:22.277Z,2.63
2024-03-05T04:00:50.490Z,2.45
2024-03-05T04:03:18.048Z,2.90
2024-03-05T04:05:46.055Z,2.33
2024-03-05T04:08:13.495Z,2.40
2024-03-05T04:10:40.967Z,2.35
2024-03-05T04:13:08.803Z,2.83
2024-03-05T04:15:36.263Z,2.90
2024-03-05T04:18:03.823Z,2.70
2024-03-05T04:20:31.408Z,2.90
2024-03-05T04:22:59.580Z,2.72
2024-03-05T04:25:35.578Z,2.88
2024-03-05T04:28:11.897Z,3.30
2024-03-05T04:30:40.059Z,3.00
2024-03-05T04:33:10.485Z,3.55
2024-03-05T04:35:38.380Z,3.65
2024-03-05T04:38:09.260Z,2.80
2024-03-05T04:40:37.260Z,2.92
2024-03-05T04:43:04.736Z,3.03
2024-03-05T04:45:32.218Z,2.95
2024-03-05T04:47:59.722Z,2.75
2024-03-05T04:50:27.234Z,3.30
2024-03-05T04:52:55.301Z,3.08
2024-03-05T04:55:24.104Z,3.15
2024-03-05T04:57:52.455Z,3.20
2024-03-05T05:00:23.810Z,3.25
2024-03-05T05:02:53.310Z,2.78
2024-03-05T05:05:21.392Z,3.40
2024-03-05T05:07:49.574Z,3.20
2024-03-05T05:10:17.261Z,3.72
2024-03-05T05:12:46.155Z,3.13
2024-03-05T05:15:14.203Z,3.53
2024-03-05T05:17:41.874Z,3.20
2024-03-05T05:20:09.919Z,3.43
2024-03-05T05:22:45.527Z,3.05
2024-03-05T05:25:17.764Z,3.50
2024-03-05T05:27:45.664Z,3.10
2024-03-05T05:30:19.716Z,3.83
2024-03-05T05:32:49.126Z,3.63
2024-03-05T05:35:17.401Z,3.50
2024-03-05T05:37:45.955Z,3.90
2024-03-05T05:40:20.598Z,3.60
2024-03-05T05:42:49.901Z,3.97
2024-03-05T05:45:17.507Z,3.70
2024-03-05T05:47:53.022Z,3.67
2024-03-05T05:50:23.609Z,3.83
2024-03-05T05:52:54.317Z,3.83
2024-03-05T05:55:22.143Z,3.42
2024-03-05T05:57:50.215Z,4.20
2024-03-05T06:00:24.529Z,3.97
2024-03-05T06:02:55.759Z,3.53
2024-03-05T06:05:32.650Z,4.43
2024-03-05T06:08:01.475Z,4.50
2024-03-05T06:10:30.778Z,4.22
2024-03-05T06:12:59.512Z,4.35
2024-03-05T06:18:01.243Z,4.45
2024-03-05T06:20:29.159Z,4.82
2024-03-05T06:22:58.441Z,5.00
2024-03-05T06:25:26.074Z,5.05
2024-03-05T06:27:53.651Z,4.83
2024-03-05T06:30:22.384Z,4.63
2024-03-05T06:32:50.597Z,5.18
2024-03-05T06:35:19.478Z,5.72
2024-03-05T06:37:50.585Z,5.32
2024-03-05T06:40:22.034Z,5.60
2024-03-05T06:42:54.133Z,5.72
2024-03-05T06:45:28.998Z,5.40
2024-03-05T06:48:10.959Z,6.22
2024-03-05T06:50:44.344Z,6.03
2024-03-05T06:53:31.279Z,5.65
2024-03-05T06:56:17.762Z,6.03
2024-03-05T06:58:46.606Z,6.07
2024-03-05T07:01:16.262Z,6.00
2024-03-05T07:03:44.577Z,6.30
2024-03-05T07:06:13.991Z,6.75
2024-03-05T07:08:45.782Z,6.05
2024-03-05T07:11:14.392Z,5.50
2024-03-05T07:13:53.047Z,5.65
2024-03-05T07:16:21.584Z,6.80
2024-03-05T07:21:18.984Z,6.63
2024-03-05T07:23:49.484Z,6.30
2024-03-05T07:26:20.160Z,7.95
2024-03-05T07:28:48.019Z,7.35
2024-03-05T07:31:17.692Z,7.38
2024-03-05T07:33:49.840Z,6.85
2024-03-05T07:36:20.139Z,7.68
2024-03-05T07:38:47.685Z,7.33
2024-03-05T07:41:22.923Z,6.40
2024-03-05T07:43:57.598Z,6.72
2024-03-05T07:46:25.200Z,5.82
2024-03-05T07:48:52.612Z,6.28
2024-03-05T07:51:24.802Z,7.28
2024-03-05T07:54:03.512Z,6.13
2024-03-05T07:56:32.748Z,5.95
2024-03-05T07:59:00.471Z,6.80
2024-03-05T08:01:28.141Z,6.53
2024-03-05T08:03:55.675Z,6.10
2024-03-05T08:06:23.177Z,7.07
2024-03-05T08:08:50.711Z,6.78
2024-03-05T08:11:18.328Z,7.07
2024-03-05T08:13:49.190Z,8.13
2024-03-05T08:16:16.747Z,7.03
2024-03-05T08:18:44.501Z,7.47
2024-03-05T08:21:11.994Z,7.03
2024-03-05T08:23:40.139Z,7.03
2024-03-05T08:26:08.834Z,7.68
2024-03-05T08:28:36.502Z,7.72
2024-03-05T08:31:03.981Z,7.63
2024-03-05T08:33:33.647Z,7.65
2024-03-05T08:36:01.236Z,7.68
2024-03-05T08:38:28.725Z,7.63
2024-03-05T08:40:56.214Z,6.57
2024-03-05T08:43:23.737Z,7.57
2024-03-05T08:45:51.503Z,7.90
2024-03-05T08:48:19.122Z,7.93
2024-03-05T08:50:47.054Z,7.68
2024-03-05T08:53:15.571Z,7.20
2024-03-05T08:58:10.560Z,7.47
2024-03-05T09:00:43.323Z,6.90
2024-03-05T09:03:15.470Z,6.78
2024-03-05T09:05:46.435Z,6.70
2024-03-05T09:08:15.428Z,7.82
2024-03-05T09:10:45.948Z,8.20
2024-03-05T09:13:13.696Z,7.70
2024-03-05T09:15:44.079Z,7.77
2024-03-05T09:18:15.747Z,8.15
2024-03-05T09:20:44.526Z,7.63
2024-03-05T09:23:12.461Z,8.27
2024-03-05T09:25:43.257Z,7.82
2024-03-05T09:28:11.302Z,9.00
2024-03-05T09:30:38.964Z,9.40
2024-03-05T09:33:11.162Z,9.80
2024-03-05T09:35:39.340Z,10.38
2024-03-05T09:38:09.834Z,8.95
2024-03-05T09:40:37.576Z,8.73
2024-03-05T09:43:08.976Z,8.43
2024-03-05T09:45:39.816Z,8.40
2024-03-05T09:48:08.877Z,7.70
2024-03-05T09:50:38.089Z,7.10
2024-03-05T09:53:06.122Z,7.43
2024-03-05T09:55:34.642Z,8.77
2024-03-05T09:58:05.641Z,7.82
2024-03-05T10:00:35.945Z,7.30
2024-03-05T10:03:03.635Z,6.70
2024-03-05T10:05:31.591Z,6.43
2024-03-05T10:07:59.301Z,5.83
2024-03-05T10:10:31.329Z,4.70
2024-03-05T10:12:59.109Z,3.90
2024-03-05T10:15:27.622Z,4.10
2024-03-05T10:17:56.638Z,3.35
2024-03-05T10:20:33.669Z,3.95
2024-03-05T10:23:03.281Z,3.92
2024-03-05T10:25:31.690Z,4.30
2024-03-05T10:28:00.993Z,4.30
2024-03-05T10:30:39.057Z,3.83
2024-03-05T10:33:11.781Z,4.10
2024-03-05T10:35:40.551Z,4.13
2024-03-05T10:38:10.060Z,4.32
2024-03-05T10:40:39.273Z,3.58
2024-03-05T10:43:11.020Z,4.93
2024-03-05T10:45:41.962Z,4.93
2024-03-05T10:48:12.206Z,5.40
2024-03-05T10:50:42.057Z,4.30
2024-03-05T10:53:10.803Z,4.53
2024-03-05T10:55:39.742Z,3.55
2024-03-05T10:58:15.740Z,3.20
2024-03-05T11:00:47.961Z,3.10
2024-03-05T11:03:18.529Z,2.50
2024-03-05T11:05:46.919Z,3.05
2024-03-05T11:08:18.867Z,2.88
2024-03-05T11:10:52.334Z,2.70
2024-03-05T11:13:22.105Z,2.10
2024-03-05T11:15:52.648Z,2.20
2024-03-05T11:18:30.063Z,2.30
2024-03-05T11:20:57.801Z,2.57
2024-03-05T11:23:34.133Z,3.40
2024-03-05T11:26:06.305Z,3.92
2024-03-05T11:28:37.575Z,3.50
2024-03-05T11:31:20.578Z,3.50
2024-03-05T11:34:04.980Z,2.97
2024-03-05T11:36:36.561Z,2.20
2024-03-05T11:39:11.179Z,2.40
2024-03-05T11:41:50.009Z,2.60
2024-03-05T11:44:32.975Z,2.58
2024-03-05T11:47:00.458Z,2.80
2024-03-05T11:49:30.724Z,2.53
2024-03-05T11:51:58.278Z,2.50
2024-03-05T11:54:25.858Z,2.70
2024-03-05T11:57:02.779Z,2.77
2024-03-05T11:59:37.846Z,2.28
2024-03-05T12:02:18.459Z,2.78
2024-03-05T12:04:50.033Z,2.70
2024-03-05T12:07:18.764Z,3.00
2024-03-05T12:09:46.252Z,2.88
2024-03-05T12:12:15.485Z,2.83
2024-03-05T12:14:52.464Z,2.95
2024-03-05T12:17:21.431Z,3.00
2024-03-05T12:20:08.916Z,2.25
2024-03-05T12:22:41.472Z,3.03
2024-03-05T12:25:11.437Z,3.30
2024-03-05T12:27:39.724Z,3.33
2024-03-05T12:32:35.345Z,2.72
2024-03-05T12:35:03.424Z,2.90
2024-03-05T12:37:31.291Z,2.70
2024-03-05T12:40:09.132Z,2.85
2024-03-05T12:42:37.124Z,2.30
2024-03-05T12:45:09.088Z,3.00
2024-03-05T12:47:38.005Z,2.75
2024-03-05T12:50:06.062Z,2.65
2024-03-05T12:52:34.045Z,2.80
2024-03-05T12:55:04.276Z,2.53
2024-03-05T12:57:32.776Z,3.10
2024-03-05T13:02:31.446Z,2.42
2024-03-05T13:05:00.343Z,2.63
2024-03-05T13:07:28.320Z,2.50
2024-03-05T13:09:56.674Z,2.85
2024-03-05T13:12:25.593Z,2.45
2024-03-05T13:14:53.083Z,2.40
2024-03-05T13:17:20.947Z,2.30
2024-03-05T13:19:48.501Z,2.13
2024-03-05T13:22:16.793Z,2.70
2024-03-05T13:24:44.523Z,2.88
2024-03-05T13:27:12.014Z,2.70
2024-03-05T13:29:39.683Z,2.60
2024-03-05T13:32:07.386Z,2.65
2024-03-05T13:34:35.022Z,2.67
2024-03-05T13:37:02.459Z,2.73
2024-03-05T13:39:29.977Z,3.45
2024-03-05T13:41:57.957Z,2.78
2024-03-05T13:44:25.618Z,3.13
2024-03-05T13:46:53.558Z,3.40
2024-03-05T13:49:25.305Z,3.22
2024-03-05T13:51:53.090Z,4.60
2024-03-05T13:54:20.662Z,5.13
2024-03-05T13:56:49.740Z,4.57
2024-03-05T13:59:17.174Z,5.00
2024-03-05T14:01:44.880Z,4.43
2024-03-05T14:04:12.472Z,4.00
2024-03-05T14:06:40.429Z,4.28
2024-03-05T14:09:12.085Z,4.88
2024-03-05T14:11:42.605Z,4.38
2024-03-05T14:14:17.343Z,4.45
2024-03-05T14:16:45.619Z,4.22
2024-03-05T14:19:13.015Z,4.03
2024-03-05T14:21:41.481Z,4.00
2024-03-05T14:26:36.407Z,4.10
2024-03-05T14:29:07.703Z,4.30
2024-03-05T14:31:35.306Z,4.10
2024-03-05T14:34:02.956Z,4.30
2024-03-05T14:36:32.641Z,5.80
2024-03-05T14:39:02.873Z,6.70
2024-03-05T14:41:30.456Z,6.18
2024-03-05T14:43:57.965Z,5.57
2024-03-05T14:46:26.212Z,5.28
2024-03-05T14:48:53.992Z,4.60
2024-03-05T14:51:21.606Z,4.68
2024-03-05T14:53:49.085Z,4.55
2024-03-05T14:56:16.617Z,4.45
2024-03-05T14:58:47.347Z,4.03
2024-03-05T15:01:14.952Z,4.15
2024-03-05T15:03:42.363Z,3.87
2024-03-05T15:06:12.523Z,4.40
2024-03-05T15:08:42.781Z,4.72
2024-03-05T15:11:10.534Z,4.43
2024-03-05T15:13:38.320Z,4.20
2024-03-05T15:16:09.190Z,4.95
2024-03-05T15:18:36.630Z,4.82
2024-03-05T15:21:10.985Z,4.55
2024-03-05T15:23:38.583Z,4.75
2024-03-05T15:26:07.066Z,3.90
2024-03-05T15:28:38.041Z,4.20
2024-03-05T15:31:10.126Z,4.68
2024-03-05T15:33:40.882Z,5.00
2024-03-05T15:36:08.683Z,4.60
2024-03-05T15:38:36.753Z,4.95
2024-03-05T15:41:05.461Z,4.40
2024-03-05T15:43:33.503Z,4.28
2024-03-05T15:46:01.419Z,5.20
2024-03-05T15:48:31.771Z,3.92
2024-03-05T15:51:03.808Z,4.40
2024-03-05T15:53:31.450Z,5.13
2024-03-05T15:56:18.905Z,4.43
2024-03-05T15:58:46.538Z,4.47
2024-03-05T16:01:14.086Z,5.43
2024-03-05T16:03:57.525Z,4.60
2024-03-05T16:06:32.033Z,4.38
2024-03-05T16:09:00.974Z,5.17
2024-03-05T16:11:28.678Z,4.68
2024-03-05T16:13:56.314Z,5.20
2024-03-05T16:16:24.995Z,4.53
2024-03-05T16:18:52.668Z,5.22
2024-03-05T16:21:21.391Z,4.60
2024-03-05T16:23:48.915Z,4.53
2024-03-05T16:26:16.974Z,4.55
2024-03-05T16:28:44.556Z,4.70
2024-03-05T16:31:14.590Z,4.95
2024-03-05T16:33:42.527Z,5.10
2024-03-05T16:36:10.102Z,4.50
2024-03-05T16:38:38.132Z,3.90
2024-03-05T16:41:05.892Z,4.25
2024-03-05T16:43:33.526Z,4.38
2024-03-05T16:46:01.280Z,4.18
2024-03-05T16:48:28.994Z,4.57
2024-03-05T16:50:58.088Z,4.50
2024-03-05T16:53:25.609Z,4.85
2024-03-05T16:55:53.079Z,4.10
2024-03-05T16:58:20.614Z,4.35
2024-03-05T17:00:52.681Z,4.35
2024-03-05T17:03:22.927Z,4.40
2024-03-05T17:05:54.029Z,4.32
2024-03-05T17:08:22.930Z,5.85
2024-03-05T17:10:52.323Z,6.97
2024-03-05T17:13:22.687Z,5.80
2024-03-05T17:16:01.808Z,5.40
2024-03-05T17:18:32.399Z,6.60
2024-03-05T17:21:00.220Z,6.13
2024-03-05T17:23:28.533Z,6.73
2024-03-05T17:25:57.664Z,5.97
2024-03-05T17:28:28.314Z,5.50
2024-03-05T17:30:57.533Z,5.47
2024-03-05T17:33:25.800Z,5.60
2024-03-05T17:35:58.313Z,5.50
2024-03-05T17:38:30.444Z,4.95
2024-03-05T17:41:00.395Z,5.43
2024-03-05T17:43:27.983Z,5.47
2024-03-05T17:45:55.775Z,4.97
2024-03-05T17:48:23.741Z,5.22
2024-03-05T17:50:51.296Z,5.28
2024-03-05T17:53:19.020Z,5.43
2024-03-05T17:55:46.859Z,5.22
2024-03-05T17:58:15.063Z,4.90
2024-03-05T18:00:46.376Z,5.38
2024-03-05T18:03:23.372Z,5.05
2024-03-05T18:05:51.363Z,4.80
2024-03-05T18:08:18.958Z,4.05
2024-03-05T18:10:47.053Z,5.03
2024-03-05T18:13:17.026Z,4.70
2024-03-05T18:15:46.910Z,3.80
2024-03-05T18:20:45.031Z,3.35
2024-03-05T18:23:14.292Z,2.88
2024-03-05T18:25:43.351Z,3.47
2024-03-05T18:28:11.197Z,3.92
2024-03-05T18:30:39.974Z,5.35
2024-03-05T18:33:09.295Z,4.20
2024-03-05T18:35:38.579Z,3.67
2024-03-05T18:40:37.059Z,3.67
2024-03-05T18:43:04.900Z,3.72
2024-03-05T18:45:33.363Z,4.78
2024-03-05T18:50:36.072Z,5.15
2024-03-05T18:53:06.956Z,4.38
2024-03-05T18:55:37.603Z,4.20
2024-03-05T18:58:08.102Z,3.70
2024-03-05T19:00:38.162Z,3.80
2024-03-05T19:03:06.614Z,3.85
2024-03-05T19:05:37.935Z,3.80
2024-03-05T19:08:09.040Z,3.85
2024-03-05T19:10:38.441Z,3.55
2024-03-05T19:13:07.139Z,3.72
2024-03-05T19:15:35.019Z,3.30
2024-03-05T19:18:05.615Z,3.13
2024-03-05T19:20:33.274Z,3.47
2024-03-05T19:23:00.917Z,3.25
2024-03-05T19:25:31.193Z,3.45
2024-03-05T19:27:58.668Z,3.03
2024-03-05T19:30:26.608Z,3.95
2024-03-05T19:32:54.297Z,4.10
2024-03-05T19:35:26.418Z,5.23
2024-03-05T19:37:55.076Z,5.30
2024-03-05T19:42:59.288Z,6.05
2024-03-05T19:45:31.524Z,6.18
2024-03-05T19:47:59.445Z,6.30
2024-03-05T19:50:28.146Z,5.50
2024-03-05T19:52:57.552Z,5.50
2024-03-05T19:55:25.648Z,5.20
2024-03-05T19:57:53.632Z,5.25
2024-03-05T20:00:25.125Z,5.47
2024-03-05T20:02:54.672Z,5.85
2024-03-05T20:05:23.408Z,5.38
2024-03-05T20:07:53.929Z,5.63
2024-03-05T20:10:22.409Z,5.85
2024-03-05T20:12:52.785Z,5.57
2024-03-05T20:15:20.763Z,6.05
2024-03-05T20:17:48.965Z,5.88
2024-03-05T20:20:18.286Z,5.20
2024-03-05T20:22:49.925Z,5.40
2024-03-05T20:25:23.701Z,5.82
2024-03-05T20:27:52.487Z,5.22
2024-03-05T20:32:48.267Z,5.67
2024-03-05T20:35:24.370Z,6.03
2024-03-05T20:37:52.650Z,7.22
2024-03-05T20:40:21.669Z,6.07
2024-03-05T20:42:49.410Z,6.75
2024-03-05T20:45:19.923Z,6.45
2024-03-05T20:47:47.770Z,6.50
2024-03-05T20:50:15.477Z,6.07
2024-03-05T20:52:44.424Z,6.43
2024-03-05T20:55:23.107Z,6.70
2024-03-05T20:57:51.482Z,7.40
2024-03-05T21:00:21.928Z,7.65
2024-03-05T21:02:54.732Z,7.68
2024-03-05T21:05:22.453Z,8.10
2024-03-05T21:07:55.435Z,8.15
2024-03-05T21:10:23.228Z,8.02
2024-03-05T21:12:50.662Z,8.40
2024-03-05T21:15:18.204Z,8.30
2024-03-05T21:17:46.284Z,8.65
2024-03-05T21:20:17.266Z,8.25
2024-03-05T21:22:45.352Z,8.63
2024-03-05T21:25:13.146Z,8.70
2024-03-05T21:27:41.948Z,8.67
2024-03-05T21:30:10.636Z,8.45
2024-03-05T21:32:38.231Z,8.10
2024-03-05T21:35:09.711Z,7.90
2024-03-05T21:37:38.999Z,7.50
2024-03-05T21:40:07.525Z,7.35
2024-03-05T21:45:02.524Z,7.43
2024-03-05T21:47:30.615Z,7.10
2024-03-05T21:49:59.234Z,7.47
2024-03-05T21:52:26.779Z,7.80
2024-03-05T21:54:54.371Z,7.40
2024-03-05T21:57:21.747Z,7.40
2024-03-05T21:59:49.259Z,7.30
2024-03-05T22:02:17.642Z,7.13
2024-03-05T22:07:12.792Z,7.30
2024-03-05T22:09:41.487Z,6.63
2024-03-05T22:12:09.299Z,6.75
2024-03-05T22:14:36.904Z,6.78
2024-03-05T22:17:09.255Z,7.22
2024-03-05T22:19:37.829Z,8.60
2024-03-05T22:24:32.723Z,8.50
2024-03-05T22:27:00.261Z,9.07
2024-03-05T22:29:38.388Z,9.07
2024-03-05T22:32:09.241Z,9.38
2024-03-05T22:37:05.747Z,8.65
2024-03-05T22:39:33.393Z,8.63
2024-03-05T22:42:00.982Z,8.13
2024-03-05T22:44:28.627Z,8.27
2024-03-05T22:46:56.162Z,7.93
2024-03-05T22:49:23.839Z,7.88
2024-03-05T22:51:51.391Z,8.82
2024-03-05T22:54:18.896Z,8.20
2024-03-05T22:56:49.219Z,8.35
2024-03-05T22:59:17.759Z,9.35
2024-03-05T23:04:12.672Z,9.95
2024-03-05T23:06:40.259Z,9.25
2024-03-05T23:09:08.155Z,9.53
2024-03-05T23:11:36.023Z,9.63
2024-03-05T23:14:03.795Z,9.65
2024-03-05T23:16:31.401Z,9.90
2024-03-05T23:18:58.933Z,9.67
2024-03-05T23:21:26.399Z,9.70
2024-03-05T23:23:57.338Z,10.05
2024-03-05T23:26:25.066Z,9.93
2024-03-05T23:28:54.424Z,9.57
2024-03-05T23:31:22.001Z,9.93
2024-03-05T23:33:49.471Z,9.30
2024-03-05T23:36:16.978Z,9.70
2024-03-05T23:38:44.692Z,10.00
2024-03-05T23:41:20.912Z,9.50
2024-03-05T23:43:57.080Z,8.93
2024-03-05T23:46:24.826Z,8.70
2024-03-05T23:48:52.658Z,8.70
2024-03-05T23:51:20.396Z,9.23
2024-03-05T23:53:47.856Z,10.32
2024-03-05T23:56:15.650Z,9.75
2024-03-05T23:58:43.314Z,10.15
